sensor_id;sensor_type;location;lat;lon;timestamp;P1;durP1;ratioP1;P2;durP2;ratioP2
39674;SDS011;27790;50.840;4.386;2023-04-15T00:00:24;4.95;;;3.50;;
39674;SDS011;27790;50.840;4.386;2023-04-15T00:02:50;2.88;;;2.60;;
39674;SDS011;27790;50.840;4.386;2023-04-15T00:05:16;5.55;;;2.80;;
39674;SDS011;27790;50.840;4.386;2023-04-15T00:07:42;6.15;;;3.10;;
39674;SDS011;27790;50.840;4.386;2023-04-15T00:10:09;3.67;;;3.00;;
39674;SDS011;27790;50.840;4.386;2023-04-15T00:12:34;7.40;;;2.95;;
39674;SDS011;27790;50.840;4.386;2023-04-15T00:15:00;3.90;;;2.97;;
39674;SDS011;27790;50.840;4.386;2023-04-15T00:17:26;4.78;;;3.17;;
39674;SDS011;27790;50.840;4.386;2023-04-15T00:19:51;5.00;;;3.30;;
39674;SDS011;27790;50.840;4.386;2023-04-15T00:22:18;3.53;;;2.90;;
39674;SDS011;27790;50.840;4.386;2023-04-15T00:24:44;6.72;;;2.97;;
39674;SDS011;27790;50.840;4.386;2023-04-15T00:27:09;5.30;;;2.97;;
39674;SDS011;27790;50.840;4.386;2023-04-15T00:29:35;3.65;;;3.28;;
39674;SDS011;27790;50.840;4.386;2023-04-15T00:32:01;3.42;;;2.58;;
39674;SDS011;27790;50.840;4.386;2023-04-15T00:34:27;4.50;;;2.88;;
39674;SDS011;27790;50.840;4.386;2023-04-15T00:36:52;3.53;;;3.05;;
39674;SDS011;27790;50.840;4.386;2023-04-15T00:39:18;3.53;;;3.22;;
39674;SDS011;27790;50.840;4.386;2023-04-15T00:41:44;4.63;;;3.65;;
39674;SDS011;27790;50.840;4.386;2023-04-15T00:44:10;7.57;;;3.33;;
39674;SDS011;27790;50.840;4.386;2023-04-15T00:46:36;4.00;;;3.45;;
39674;SDS011;27790;50.840;4.386;2023-04-15T00:49:03;5.07;;;3.60;;
39674;SDS011;27790;50.840;4.386;2023-04-15T00:51:30;7.25;;;3.33;;
39674;SDS011;27790;50.840;4.386;2023-04-15T00:53:58;5.30;;;2.97;;
39674;SDS011;27790;50.840;4.386;2023-04-15T00:56:24;5.47;;;2.92;;
39674;SDS011;27790;50.840;4.386;2023-04-15T00:58:51;8.80;;;3.88;;
39674;SDS011;27790;50.840;4.386;2023-04-15T01:01:20;3.33;;;2.45;;
39674;SDS011;27790;50.840;4.386;2023-04-15T01:03:49;4.57;;;2.80;;
39674;SDS011;27790;50.840;4.386;2023-04-15T01:06:16;5.50;;;2.55;;
39674;SDS011;27790;50.840;4.386;2023-04-15T01:08:42;5.85;;;2.63;;
39674;SDS011;27790;50.840;4.386;2023-04-15T01:11:09;3.60;;;2.90;;
39674;SDS011;27790;50.840;4.386;2023-04-15T01:13:37;3.67;;;2.40;;
39674;SDS011;27790;50.840;4.386;2023-04-15T01:16:03;4.18;;;2.10;;
39674;SDS011;27790;50.840;4.386;2023-04-15T01:18:29;2.33;;;2.13;;
39674;SDS011;27790;50.840;4.386;2023-04-15T01:20:55;6.07;;;1.90;;
39674;SDS011;27790;50.840;4.386;2023-04-15T01:23:21;4.53;;;2.08;;
39674;SDS011;27790;50.840;4.386;2023-04-15T01:25:47;2.17;;;1.95;;
39674;SDS011;27790;50.840;4.386;2023-04-15T01:28:14;2.13;;;1.92;;
39674;SDS011;27790;50.840;4.386;2023-04-15T01:30:40;2.85;;;2.25;;
39674;SDS011;27790;50.840;4.386;2023-04-15T01:33:09;3.05;;;1.98;;
39674;SDS011;27790;50.840;4.386;2023-04-15T01:35:35;1.42;;;1.33;;
39674;SDS011;27790;50.840;4.386;2023-04-15T01:38:07;2.22;;;1.90;;
39674;SDS011;27790;50.840;4.386;2023-04-15T01:40:33;4.95;;;2.22;;
39674;SDS011;27790;50.840;4.386;2023-04-15T01:43:00;3.00;;;2.10;;
39674;SDS011;27790;50.840;4.386;2023-04-15T01:45:26;2.72;;;1.55;;
39674;SDS011;27790;50.840;4.386;2023-04-15T01:47:52;1.67;;;1.42;;
39674;SDS011;27790;50.840;4.386;2023-04-15T01:50:18;1.85;;;1.70;;
39674;SDS011;27790;50.840;4.386;2023-04-15T01:52:44;4.60;;;1.48;;
39674;SDS011;27790;50.840;4.386;2023-04-15T01:55:11;2.47;;;1.85;;
39674;SDS011;27790;50.840;4.386;2023-04-15T01:57:38;4.22;;;1.63;;
39674;SDS011;27790;50.840;4.386;2023-04-15T02:00:04;3.90;;;1.83;;
39674;SDS011;27790;50.840;4.386;2023-04-15T02:02:31;2.38;;;1.40;;
39674;SDS011;27790;50.840;4.386;2023-04-15T02:04:57;1.35;;;1.20;;
39674;SDS011;27790;50.840;4.386;2023-04-15T02:07:23;1.75;;;1.55;;
39674;SDS011;27790;50.840;4.386;2023-04-15T02:09:49;6.78;;;2.13;;
39674;SDS011;27790;50.840;4.386;2023-04-15T02:12:15;2.08;;;1.63;;
39674;SDS011;27790;50.840;4.386;2023-04-15T02:14:40;2.58;;;1.35;;
39674;SDS011;27790;50.840;4.386;2023-04-15T02:17:06;2.92;;;1.75;;
39674;SDS011;27790;50.840;4.386;2023-04-15T02:19:33;1.95;;;1.80;;
39674;SDS011;27790;50.840;4.386;2023-04-15T02:21:59;3.60;;;1.98;;
39674;SDS011;27790;50.840;4.386;2023-04-15T02:24:26;4.18;;;1.95;;
39674;SDS011;27790;50.840;4.386;2023-04-15T02:26:52;2.30;;;2.10;;
39674;SDS011;27790;50.840;4.386;2023-04-15T02:29:18;3.72;;;2.13;;
39674;SDS011;27790;50.840;4.386;2023-04-15T02:31:43;10.05;;;3.58;;
39674;SDS011;27790;50.840;4.386;2023-04-15T02:34:09;9.90;;;4.25;;
39674;SDS011;27790;50.840;4.386;2023-04-15T02:36:35;7.75;;;4.38;;
39674;SDS011;27790;50.840;4.386;2023-04-15T02:39:01;10.70;;;4.35;;
39674;SDS011;27790;50.840;4.386;2023-04-15T02:41:28;10.00;;;4.50;;
39674;SDS011;27790;50.840;4.386;2023-04-15T02:43:54;10.57;;;5.70;;
39674;SDS011;27790;50.840;4.386;2023-04-15T02:46:20;11.10;;;5.97;;
39674;SDS011;27790;50.840;4.386;2023-04-15T02:48:47;8.40;;;5.38;;
39674;SDS011;27790;50.840;4.386;2023-04-15T02:51:13;14.50;;;6.43;;
39674;SDS011;27790;50.840;4.386;2023-04-15T02:53:40;13.68;;;5.55;;
39674;SDS011;27790;50.840;4.386;2023-04-15T02:56:06;11.55;;;5.88;;
39674;SDS011;27790;50.840;4.386;2023-04-15T02:58:32;16.50;;;7.88;;
39674;SDS011;27790;50.840;4.386;2023-04-15T03:00:59;21.27;;;8.40;;
39674;SDS011;27790;50.840;4.386;2023-04-15T03:03:24;18.73;;;8.60;;
39674;SDS011;27790;50.840;4.386;2023-04-15T03:05:52;16.88;;;8.55;;
39674;SDS011;27790;50.840;4.386;2023-04-15T03:08:17;16.73;;;8.45;;
39674;SDS011;27790;50.840;4.386;2023-04-15T03:10:43;16.88;;;8.30;;
39674;SDS011;27790;50.840;4.386;2023-04-15T03:13:08;26.42;;;9.88;;
39674;SDS011;27790;50.840;4.386;2023-04-15T03:15:34;18.98;;;9.52;;
39674;SDS011;27790;50.840;4.386;2023-04-15T03:18:00;31.10;;;12.10;;
39674;SDS011;27790;50.840;4.386;2023-04-15T03:20:25;28.33;;;12.82;;
39674;SDS011;27790;50.840;4.386;2023-04-15T03:22:51;30.02;;;13.32;;
39674;SDS011;27790;50.840;4.386;2023-04-15T03:25:17;27.05;;;12.65;;
39674;SDS011;27790;50.840;4.386;2023-04-15T03:27:42;29.63;;;11.95;;
39674;SDS011;27790;50.840;4.386;2023-04-15T03:30:08;26.58;;;11.73;;
39674;SDS011;27790;50.840;4.386;2023-04-15T03:32:34;26.83;;;12.30;;
39674;SDS011;27790;50.840;4.386;2023-04-15T03:35:00;25.83;;;11.98;;
39674;SDS011;27790;50.840;4.386;2023-04-15T03:37:25;21.35;;;11.70;;
39674;SDS011;27790;50.840;4.386;2023-04-15T03:39:51;24.65;;;11.80;;
39674;SDS011;27790;50.840;4.386;2023-04-15T03:42:17;22.65;;;9.90;;
39674;SDS011;27790;50.840;4.386;2023-04-15T03:44:42;18.20;;;9.18;;
39674;SDS011;27790;50.840;4.386;2023-04-15T03:47:08;21.92;;;9.55;;
39674;SDS011;27790;50.840;4.386;2023-04-15T03:49:33;17.90;;;8.68;;
39674;SDS011;27790;50.840;4.386;2023-04-15T03:52:00;14.23;;;7.30;;
39674;SDS011;27790;50.840;4.386;2023-04-15T03:54:25;17.77;;;8.35;;
39674;SDS011;27790;50.840;4.386;2023-04-15T03:56:51;13.75;;;7.97;;
39674;SDS011;27790;50.840;4.386;2023-04-15T03:59:16;11.63;;;7.53;;
39674;SDS011;27790;50.840;4.386;2023-04-15T04:01:42;11.70;;;7.20;;
39674;SDS011;27790;50.840;4.386;2023-04-15T04:04:07;13.23;;;7.85;;
39674;SDS011;27790;50.840;4.386;2023-04-15T04:06:33;12.98;;;8.18;;
39674;SDS011;27790;50.840;4.386;2023-04-15T04:08:59;9.70;;;6.57;;
39674;SDS011;27790;50.840;4.386;2023-04-15T04:11:25;15.00;;;7.38;;
39674;SDS011;27790;50.840;4.386;2023-04-15T04:13:52;15.30;;;7.30;;
39674;SDS011;27790;50.840;4.386;2023-04-15T04:16:18;13.48;;;6.63;;
39674;SDS011;27790;50.840;4.386;2023-04-15T04:18:43;8.90;;;6.63;;
39674;SDS011;27790;50.840;4.386;2023-04-15T04:21:09;10.50;;;6.38;;
39674;SDS011;27790;50.840;4.386;2023-04-15T04:23:35;11.02;;;6.57;;
39674;SDS011;27790;50.840;4.386;2023-04-15T04:26:01;9.95;;;6.72;;
39674;SDS011;27790;50.840;4.386;2023-04-15T04:28:26;10.02;;;6.55;;
39674;SDS011;27790;50.840;4.386;2023-04-15T04:30:52;9.75;;;6.15;;
39674;SDS011;27790;50.840;4.386;2023-04-15T04:33:18;10.25;;;6.70;;
39674;SDS011;27790;50.840;4.386;2023-04-15T04:35:43;9.75;;;6.60;;
39674;SDS011;27790;50.840;4.386;2023-04-15T04:38:09;11.15;;;6.85;;
39674;SDS011;27790;50.840;4.386;2023-04-15T04:40:35;10.75;;;7.10;;
39674;SDS011;27790;50.840;4.386;2023-04-15T04:43:01;8.10;;;6.05;;
39674;SDS011;27790;50.840;4.386;2023-04-15T04:45:26;11.95;;;7.20;;
39674;SDS011;27790;50.840;4.386;2023-04-15T04:47:52;14.23;;;6.43;;
39674;SDS011;27790;50.840;4.386;2023-04-15T04:50:17;12.50;;;6.57;;
39674;SDS011;27790;50.840;4.386;2023-04-15T04:52:43;11.23;;;6.75;;
39674;SDS011;27790;50.840;4.386;2023-04-15T04:55:09;9.80;;;6.38;;
39674;SDS011;27790;50.840;4.386;2023-04-15T04:57:34;9.00;;;5.80;;
39674;SDS011;27790;50.840;4.386;2023-04-15T05:00:00;10.20;;;5.93;;
39674;SDS011;27790;50.840;4.386;2023-04-15T05:02:28;7.50;;;5.32;;
39674;SDS011;27790;50.840;4.386;2023-04-15T05:04:54;8.00;;;5.70;;
39674;SDS011;27790;50.840;4.386;2023-04-15T05:07:20;11.93;;;5.38;;
39674;SDS011;27790;50.840;4.386;2023-04-15T05:09:46;11.07;;;5.60;;
39674;SDS011;27790;50.840;4.386;2023-04-15T05:12:12;7.65;;;5.13;;
39674;SDS011;27790;50.840;4.386;2023-04-15T05:14:40;7.95;;;5.25;;
39674;SDS011;27790;50.840;4.386;2023-04-15T05:17:06;10.38;;;5.72;;
39674;SDS011;27790;50.840;4.386;2023-04-15T05:19:32;11.20;;;5.80;;
39674;SDS011;27790;50.840;4.386;2023-04-15T05:21:58;10.73;;;5.63;;
39674;SDS011;27790;50.840;4.386;2023-04-15T05:24:24;9.93;;;5.50;;
39674;SDS011;27790;50.840;4.386;2023-04-15T05:26:51;9.55;;;4.85;;
39674;SDS011;27790;50.840;4.386;2023-04-15T05:29:16;10.25;;;5.30;;
39674;SDS011;27790;50.840;4.386;2023-04-15T05:31:42;11.05;;;5.53;;
39674;SDS011;27790;50.840;4.386;2023-04-15T05:34:08;12.32;;;5.68;;
39674;SDS011;27790;50.840;4.386;2023-04-15T05:36:35;11.43;;;6.22;;
39674;SDS011;27790;50.840;4.386;2023-04-15T05:39:01;7.78;;;4.78;;
39674;SDS011;27790;50.840;4.386;2023-04-15T05:41:28;13.85;;;6.57;;
39674;SDS011;27790;50.840;4.386;2023-04-15T05:43:54;9.52;;;5.20;;
39674;SDS011;27790;50.840;4.386;2023-04-15T05:46:19;14.05;;;6.05;;
39674;SDS011;27790;50.840;4.386;2023-04-15T05:48:45;8.90;;;5.63;;
39674;SDS011;27790;50.840;4.386;2023-04-15T05:51:11;8.63;;;5.38;;
39674;SDS011;27790;50.840;4.386;2023-04-15T05:53:36;11.82;;;5.88;;
39674;SDS011;27790;50.840;4.386;2023-04-15T05:56:02;8.88;;;5.72;;
39674;SDS011;27790;50.840;4.386;2023-04-15T05:58:28;10.35;;;5.53;;
39674;SDS011;27790;50.840;4.386;2023-04-15T06:00:53;11.15;;;6.07;;
39674;SDS011;27790;50.840;4.386;2023-04-15T06:03:19;14.45;;;6.40;;
39674;SDS011;27790;50.840;4.386;2023-04-15T06:05:45;6.93;;;5.32;;
39674;SDS011;27790;50.840;4.386;2023-04-15T06:08:10;11.77;;;5.70;;
39674;SDS011;27790;50.840;4.386;2023-04-15T06:10:36;12.93;;;8.15;;
39674;SDS011;27790;50.840;4.386;2023-04-15T06:13:02;9.82;;;6.38;;
39674;SDS011;27790;50.840;4.386;2023-04-15T06:15:28;9.93;;;6.65;;
39674;SDS011;27790;50.840;4.386;2023-04-15T06:17:54;9.20;;;6.03;;
39674;SDS011;27790;50.840;4.386;2023-04-15T06:20:20;10.40;;;5.82;;
39674;SDS011;27790;50.840;4.386;2023-04-15T06:22:46;11.57;;;5.97;;
39674;SDS011;27790;50.840;4.386;2023-04-15T06:25:12;10.05;;;5.88;;
39674;SDS011;27790;50.840;4.386;2023-04-15T06:27:38;15.13;;;7.07;;
39674;SDS011;27790;50.840;4.386;2023-04-15T06:30:04;13.07;;;6.47;;
39674;SDS011;27790;50.840;4.386;2023-04-15T06:32:30;11.63;;;6.65;;
39674;SDS011;27790;50.840;4.386;2023-04-15T06:34:56;8.43;;;5.90;;
39674;SDS011;27790;50.840;4.386;2023-04-15T06:37:22;12.73;;;6.55;;
39674;SDS011;27790;50.840;4.386;2023-04-15T06:39:48;12.05;;;6.50;;
39674;SDS011;27790;50.840;4.386;2023-04-15T06:42:13;12.63;;;5.72;;
39674;SDS011;27790;50.840;4.386;2023-04-15T06:44:39;9.65;;;6.05;;
39674;SDS011;27790;50.840;4.386;2023-04-15T06:47:05;8.60;;;5.68;;
39674;SDS011;27790;50.840;4.386;2023-04-15T06:49:31;12.88;;;6.55;;
39674;SDS011;27790;50.840;4.386;2023-04-15T06:51:57;8.32;;;5.40;;
39674;SDS011;27790;50.840;4.386;2023-04-15T06:54:24;11.60;;;5.15;;
39674;SDS011;27790;50.840;4.386;2023-04-15T06:56:50;7.53;;;5.38;;
39674;SDS011;27790;50.840;4.386;2023-04-15T06:59:16;12.02;;;5.20;;
39674;SDS011;27790;50.840;4.386;2023-04-15T07:01:42;10.02;;;5.15;;
39674;SDS011;27790;50.840;4.386;2023-04-15T07:04:08;9.57;;;4.90;;
39674;SDS011;27790;50.840;4.386;2023-04-15T07:06:35;8.32;;;4.78;;
39674;SDS011;27790;50.840;4.386;2023-04-15T07:09:00;10.65;;;5.70;;
39674;SDS011;27790;50.840;4.386;2023-04-15T07:11:28;11.10;;;5.60;;
39674;SDS011;27790;50.840;4.386;2023-04-15T07:13:54;11.73;;;5.88;;
39674;SDS011;27790;50.840;4.386;2023-04-15T07:16:21;7.57;;;4.88;;
39674;SDS011;27790;50.840;4.386;2023-04-15T07:18:47;8.82;;;5.13;;
39674;SDS011;27790;50.840;4.386;2023-04-15T07:21:12;13.73;;;6.18;;
39674;SDS011;27790;50.840;4.386;2023-04-15T07:23:41;12.13;;;5.65;;
39674;SDS011;27790;50.840;4.386;2023-04-15T07:26:07;8.35;;;5.43;;
39674;SDS011;27790;50.840;4.386;2023-04-15T07:28:33;10.20;;;5.75;;
39674;SDS011;27790;50.840;4.386;2023-04-15T07:30:58;13.23;;;6.00;;
39674;SDS011;27790;50.840;4.386;2023-04-15T07:33:24;8.63;;;6.43;;
39674;SDS011;27790;50.840;4.386;2023-04-15T07:35:50;14.80;;;5.97;;
39674;SDS011;27790;50.840;4.386;2023-04-15T07:38:16;7.72;;;5.25;;
39674;SDS011;27790;50.840;4.386;2023-04-15T07:40:41;9.82;;;6.47;;
39674;SDS011;27790;50.840;4.386;2023-04-15T07:43:07;11.20;;;6.32;;
39674;SDS011;27790;50.840;4.386;2023-04-15T07:45:34;9.82;;;6.32;;
39674;SDS011;27790;50.840;4.386;2023-04-15T07:48:00;10.50;;;5.85;;
39674;SDS011;27790;50.840;4.386;2023-04-15T07:50:27;8.32;;;6.13;;
39674;SDS011;27790;50.840;4.386;2023-04-15T07:52:52;8.60;;;5.72;;
39674;SDS011;27790;50.840;4.386;2023-04-15T07:55:18;11.52;;;6.38;;
39674;SDS011;27790;50.840;4.386;2023-04-15T07:57:47;8.45;;;5.60;;
39674;SDS011;27790;50.840;4.386;2023-04-15T08:00:13;11.20;;;6.85;;
39674;SDS011;27790;50.840;4.386;2023-04-15T08:02:40;12.35;;;6.63;;
39674;SDS011;27790;50.840;4.386;2023-04-15T08:05:07;11.82;;;7.28;;
39674;SDS011;27790;50.840;4.386;2023-04-15T08:07:35;10.18;;;6.22;;
39674;SDS011;27790;50.840;4.386;2023-04-15T08:10:02;15.80;;;6.43;;
39674;SDS011;27790;50.840;4.386;2023-04-15T08:12:28;10.10;;;7.47;;
39674;SDS011;27790;50.840;4.386;2023-04-15T08:14:54;9.57;;;6.47;;
39674;SDS011;27790;50.840;4.386;2023-04-15T08:17:20;13.48;;;7.10;;
39674;SDS011;27790;50.840;4.386;2023-04-15T08:19:46;9.95;;;6.60;;
39674;SDS011;27790;50.840;4.386;2023-04-15T08:22:12;10.57;;;7.10;;
39674;SDS011;27790;50.840;4.386;2023-04-15T08:24:38;10.75;;;7.15;;
39674;SDS011;27790;50.840;4.386;2023-04-15T08:27:04;13.20;;;7.60;;
39674;SDS011;27790;50.840;4.386;2023-04-15T08:29:30;10.98;;;6.75;;
39674;SDS011;27790;50.840;4.386;2023-04-15T08:31:56;11.13;;;7.85;;
39674;SDS011;27790;50.840;4.386;2023-04-15T08:34:24;11.40;;;7.63;;
39674;SDS011;27790;50.840;4.386;2023-04-15T08:36:50;13.15;;;8.48;;
39674;SDS011;27790;50.840;4.386;2023-04-15T08:39:16;11.95;;;7.88;;
39674;SDS011;27790;50.840;4.386;2023-04-15T08:41:45;13.10;;;8.32;;
39674;SDS011;27790;50.840;4.386;2023-04-15T08:44:15;8.95;;;7.70;;
39674;SDS011;27790;50.840;4.386;2023-04-15T08:46:42;11.43;;;8.07;;
39674;SDS011;27790;50.840;4.386;2023-04-15T08:49:09;18.98;;;8.82;;
39674;SDS011;27790;50.840;4.386;2023-04-15T08:51:37;14.77;;;9.38;;
39674;SDS011;27790;50.840;4.386;2023-04-15T08:54:04;13.80;;;8.20;;
39674;SDS011;27790;50.840;4.386;2023-04-15T08:56:30;13.35;;;9.73;;
39674;SDS011;27790;50.840;4.386;2023-04-15T08:58:57;13.55;;;9.40;;
39674;SDS011;27790;50.840;4.386;2023-04-15T09:01:24;14.80;;;8.55;;
39674;SDS011;27790;50.840;4.386;2023-04-15T09:03:50;16.13;;;8.70;;
39674;SDS011;27790;50.840;4.386;2023-04-15T09:06:19;10.57;;;7.90;;
39674;SDS011;27790;50.840;4.386;2023-04-15T09:08:45;11.57;;;8.27;;
39674;SDS011;27790;50.840;4.386;2023-04-15T09:11:11;13.73;;;8.65;;
39674;SDS011;27790;50.840;4.386;2023-04-15T09:13:37;18.00;;;8.55;;
39674;SDS011;27790;50.840;4.386;2023-04-15T09:16:04;10.40;;;8.02;;
39674;SDS011;27790;50.840;4.386;2023-04-15T09:18:31;11.18;;;7.80;;
39674;SDS011;27790;50.840;4.386;2023-04-15T09:21:05;13.45;;;8.32;;
39674;SDS011;27790;50.840;4.386;2023-04-15T09:23:33;13.13;;;7.75;;
39674;SDS011;27790;50.840;4.386;2023-04-15T09:26:00;12.73;;;7.38;;
39674;SDS011;27790;50.840;4.386;2023-04-15T09:28:27;11.77;;;7.03;;
39674;SDS011;27790;50.840;4.386;2023-04-15T09:30:59;8.27;;;6.80;;
39674;SDS011;27790;50.840;4.386;2023-04-15T09:33:26;11.07;;;6.27;;
39674;SDS011;27790;50.840;4.386;2023-04-15T09:38:30;7.80;;;5.65;;
39674;SDS011;27790;50.840;4.386;2023-04-15T09:40:56;5.80;;;4.97;;
39674;SDS011;27790;50.840;4.386;2023-04-15T09:43:35;9.55;;;5.00;;
39674;SDS011;27790;50.840;4.386;2023-04-15T09:46:03;8.88;;;4.70;;
39674;SDS011;27790;50.840;4.386;2023-04-15T09:48:29;5.95;;;5.05;;
39674;SDS011;27790;50.840;4.386;2023-04-15T09:50:58;8.48;;;5.03;;
39674;SDS011;27790;50.840;4.386;2023-04-15T09:53:25;7.45;;;5.30;;
39674;SDS011;27790;50.840;4.386;2023-04-15T09:55:52;14.07;;;5.55;;
39674;SDS011;27790;50.840;4.386;2023-04-15T10:00:48;8.32;;;3.80;;
39674;SDS011;27790;50.840;4.386;2023-04-15T10:03:17;7.78;;;4.57;;
39674;SDS011;27790;50.840;4.386;2023-04-15T10:05:45;7.13;;;4.07;;
39674;SDS011;27790;50.840;4.386;2023-04-15T10:08:12;5.38;;;4.50;;
39674;SDS011;27790;50.840;4.386;2023-04-15T10:10:40;7.68;;;5.47;;
39674;SDS011;27790;50.840;4.386;2023-04-15T10:13:05;8.75;;;5.70;;
39674;SDS011;27790;50.840;4.386;2023-04-15T10:15:32;8.00;;;5.40;;
39674;SDS011;27790;50.840;4.386;2023-04-15T10:17:58;7.57;;;5.45;;
39674;SDS011;27790;50.840;4.386;2023-04-15T10:20:25;8.20;;;6.60;;
39674;SDS011;27790;50.840;4.386;2023-04-15T10:22:52;5.80;;;4.93;;
39674;SDS011;27790;50.840;4.386;2023-04-15T10:25:18;8.43;;;5.70;;
39674;SDS011;27790;50.840;4.386;2023-04-15T10:27:44;10.70;;;5.35;;
39674;SDS011;27790;50.840;4.386;2023-04-15T10:30:12;7.40;;;5.30;;
39674;SDS011;27790;50.840;4.386;2023-04-15T10:32:38;10.27;;;5.13;;
39674;SDS011;27790;50.840;4.386;2023-04-15T10:35:05;6.82;;;4.63;;
39674;SDS011;27790;50.840;4.386;2023-04-15T10:37:37;8.77;;;4.70;;
39674;SDS011;27790;50.840;4.386;2023-04-15T10:43:02;6.82;;;4.53;;
39674;SDS011;27790;50.840;4.386;2023-04-15T10:45:35;5.72;;;4.20;;
39674;SDS011;27790;50.840;4.386;2023-04-15T10:48:02;6.43;;;4.75;;
39674;SDS011;27790;50.840;4.386;2023-04-15T10:50:29;4.93;;;4.38;;
39674;SDS011;27790;50.840;4.386;2023-04-15T10:52:56;5.43;;;3.45;;
39674;SDS011;27790;50.840;4.386;2023-04-15T10:55:24;3.97;;;3.03;;
39674;SDS011;27790;50.840;4.386;2023-04-15T10:57:53;4.30;;;2.50;;
39674;SDS011;27790;50.840;4.386;2023-04-15T11:00:29;3.92;;;3.08;;
39674;SDS011;27790;50.840;4.386;2023-04-15T11:08:05;7.97;;;2.75;;
39674;SDS011;27790;50.840;4.386;2023-04-15T11:12:58;3.55;;;3.15;;
39674;SDS011;27790;50.840;4.386;2023-04-15T11:15:42;3.33;;;2.80;;
39674;SDS011;27790;50.840;4.386;2023-04-15T11:20:48;3.35;;;2.65;;
39674;SDS011;27790;50.840;4.386;2023-04-15T11:23:19;4.57;;;3.03;;
39674;SDS011;27790;50.840;4.386;2023-04-15T11:25:53;3.80;;;3.22;;
39674;SDS011;27790;50.840;4.386;2023-04-15T11:28:19;6.43;;;3.75;;
39674;SDS011;27790;50.840;4.386;2023-04-15T11:30:49;5.90;;;3.50;;
39674;SDS011;27790;50.840;4.386;2023-04-15T11:33:14;3.28;;;2.92;;
39674;SDS011;27790;50.840;4.386;2023-04-15T11:35:40;4.47;;;3.00;;
39674;SDS011;27790;50.840;4.386;2023-04-15T11:38:07;2.92;;;2.63;;
39674;SDS011;27790;50.840;4.386;2023-04-15T11:40:36;3.78;;;2.78;;
39674;SDS011;27790;50.840;4.386;2023-04-15T11:43:09;3.88;;;2.50;;
39674;SDS011;27790;50.840;4.386;2023-04-15T11:45:46;3.20;;;2.65;;
39674;SDS011;27790;50.840;4.386;2023-04-15T11:48:12;4.32;;;2.50;;
39674;SDS011;27790;50.840;4.386;2023-04-15T11:50:38;4.45;;;2.38;;
39674;SDS011;27790;50.840;4.386;2023-04-15T11:53:05;2.72;;;1.73;;
39674;SDS011;27790;50.840;4.386;2023-04-15T11:58:14;3.13;;;2.55;;
39674;SDS011;27790;50.840;4.386;2023-04-15T12:00:45;3.30;;;2.85;;
39674;SDS011;27790;50.840;4.386;2023-04-15T12:16:38;3.17;;;2.10;;
39674;SDS011;27790;50.840;4.386;2023-04-15T12:19:10;2.45;;;2.00;;
39674;SDS011;27790;50.840;4.386;2023-04-15T12:21:39;4.03;;;2.58;;
39674;SDS011;27790;50.840;4.386;2023-04-15T12:24:08;2.53;;;2.17;;
39674;SDS011;27790;50.840;4.386;2023-04-15T12:26:43;3.20;;;2.90;;
39674;SDS011;27790;50.840;4.386;2023-04-15T12:29:11;3.75;;;3.45;;
39674;SDS011;27790;50.840;4.386;2023-04-15T12:36:57;3.53;;;2.38;;
39674;SDS011;27790;50.840;4.386;2023-04-15T12:39:26;3.42;;;2.17;;
39674;SDS011;27790;50.840;4.386;2023-04-15T12:41:53;3.60;;;2.35;;
39674;SDS011;27790;50.840;4.386;2023-04-15T12:44:20;2.53;;;2.20;;
39674;SDS011;27790;50.840;4.386;2023-04-15T12:46:47;4.28;;;2.08;;
39674;SDS011;27790;50.840;4.386;2023-04-15T12:49:14;5.60;;;2.35;;
39674;SDS011;27790;50.840;4.386;2023-04-15T12:51:40;5.15;;;2.53;;
39674;SDS011;27790;50.840;4.386;2023-04-15T12:54:06;4.45;;;1.73;;
39674;SDS011;27790;50.840;4.386;2023-04-15T12:56:32;3.00;;;2.08;;
39674;SDS011;27790;50.840;4.386;2023-04-15T12:58:58;2.97;;;2.15;;
39674;SDS011;27790;50.840;4.386;2023-04-15T13:01:23;2.40;;;1.70;;
39674;SDS011;27790;50.840;4.386;2023-04-15T13:03:49;3.08;;;2.17;;
39674;SDS011;27790;50.840;4.386;2023-04-15T13:06:15;6.55;;;1.90;;
39674;SDS011;27790;50.840;4.386;2023-04-15T13:08:41;3.28;;;1.85;;
39674;SDS011;27790;50.840;4.386;2023-04-15T13:11:07;2.28;;;1.83;;
39674;SDS011;27790;50.840;4.386;2023-04-15T13:13:33;4.93;;;2.30;;
39674;SDS011;27790;50.840;4.386;2023-04-15T13:15:58;4.35;;;2.33;;
39674;SDS011;27790;50.840;4.386;2023-04-15T13:18:24;4.80;;;2.25;;
39674;SDS011;27790;50.840;4.386;2023-04-15T13:20:50;5.05;;;1.90;;
39674;SDS011;27790;50.840;4.386;2023-04-15T13:23:16;5.85;;;2.47;;
39674;SDS011;27790;50.840;4.386;2023-04-15T13:25:41;3.30;;;2.13;;
39674;SDS011;27790;50.840;4.386;2023-04-15T13:28:07;5.30;;;2.63;;
39674;SDS011;27790;50.840;4.386;2023-04-15T13:30:36;2.90;;;2.08;;
39674;SDS011;27790;50.840;4.386;2023-04-15T13:33:03;3.88;;;2.70;;
39674;SDS011;27790;50.840;4.386;2023-04-15T13:35:30;4.18;;;2.28;;
39674;SDS011;27790;50.840;4.386;2023-04-15T13:37:56;3.45;;;2.45;;
39674;SDS011;27790;50.840;4.386;2023-04-15T13:40:22;2.95;;;1.80;;
39674;SDS011;27790;50.840;4.386;2023-04-15T13:42:48;2.75;;;2.22;;
39674;SDS011;27790;50.840;4.386;2023-04-15T13:45:13;2.80;;;2.58;;
39674;SDS011;27790;50.840;4.386;2023-04-15T13:47:40;5.75;;;2.00;;
39674;SDS011;27790;50.840;4.386;2023-04-15T13:50:06;4.10;;;2.33;;
39674;SDS011;27790;50.840;4.386;2023-04-15T13:52:32;3.50;;;2.03;;
39674;SDS011;27790;50.840;4.386;2023-04-15T13:54:57;3.65;;;2.22;;
39674;SDS011;27790;50.840;4.386;2023-04-15T13:57:23;4.70;;;2.25;;
39674;SDS011;27790;50.840;4.386;2023-04-15T13:59:49;4.13;;;1.92;;
39674;SDS011;27790;50.840;4.386;2023-04-15T14:02:15;4.40;;;2.00;;
39674;SDS011;27790;50.840;4.386;2023-04-15T14:04:40;4.22;;;1.73;;
39674;SDS011;27790;50.840;4.386;2023-04-15T14:07:06;2.08;;;1.70;;
39674;SDS011;27790;50.840;4.386;2023-04-15T14:09:32;7.88;;;3.47;;
39674;SDS011;27790;50.840;4.386;2023-04-15T14:11:57;2.85;;;1.88;;
39674;SDS011;27790;50.840;4.386;2023-04-15T14:14:24;3.03;;;1.73;;
39674;SDS011;27790;50.840;4.386;2023-04-15T14:16:49;3.33;;;2.13;;
39674;SDS011;27790;50.840;4.386;2023-04-15T14:19:15;5.70;;;2.15;;
39674;SDS011;27790;50.840;4.386;2023-04-15T14:21:41;4.90;;;2.03;;
39674;SDS011;27790;50.840;4.386;2023-04-15T14:24:06;4.15;;;2.30;;
39674;SDS011;27790;50.840;4.386;2023-04-15T14:26:32;3.40;;;2.55;;
39674;SDS011;27790;50.840;4.386;2023-04-15T14:28:58;4.93;;;2.70;;
39674;SDS011;27790;50.840;4.386;2023-04-15T14:31:23;4.85;;;1.77;;
39674;SDS011;27790;50.840;4.386;2023-04-15T14:33:49;3.60;;;1.75;;
39674;SDS011;27790;50.840;4.386;2023-04-15T14:36:15;2.47;;;1.50;;
39674;SDS011;27790;50.840;4.386;2023-04-15T14:38:40;7.47;;;1.60;;
39674;SDS011;27790;50.840;4.386;2023-04-15T14:41:06;4.18;;;1.50;;
39674;SDS011;27790;50.840;4.386;2023-04-15T14:43:32;3.20;;;1.63;;
39674;SDS011;27790;50.840;4.386;2023-04-15T14:45:58;1.38;;;1.00;;
39674;SDS011;27790;50.840;4.386;2023-04-15T14:48:24;1.50;;;1.30;;
39674;SDS011;27790;50.840;4.386;2023-04-15T14:50:50;2.83;;;1.58;;
39674;SDS011;27790;50.840;4.386;2023-04-15T14:53:16;3.45;;;1.55;;
39674;SDS011;27790;50.840;4.386;2023-04-15T14:55:42;2.33;;;1.15;;
39674;SDS011;27790;50.840;4.386;2023-04-15T14:58:08;4.50;;;1.50;;
39674;SDS011;27790;50.840;4.386;2023-04-15T15:00:34;3.70;;;1.58;;
39674;SDS011;27790;50.840;4.386;2023-04-15T15:03:03;4.57;;;1.85;;
39674;SDS011;27790;50.840;4.386;2023-04-15T15:05:30;4.00;;;1.50;;
39674;SDS011;27790;50.840;4.386;2023-04-15T15:07:56;6.63;;;1.92;;
39674;SDS011;27790;50.840;4.386;2023-04-15T15:10:21;3.55;;;1.60;;
39674;SDS011;27790;50.840;4.386;2023-04-15T15:12:47;3.13;;;1.85;;
39674;SDS011;27790;50.840;4.386;2023-04-15T15:15:12;3.58;;;2.17;;
39674;SDS011;27790;50.840;4.386;2023-04-15T15:17:38;2.28;;;2.00;;